Time;durP1;ratioP1;P1;durP2;ratioP2;P2;SDS_P1;SDS_P2;PMS_P1;PMS_P2;Temp;Humidity;BMP_temperature;BMP_pressure;BME280_temperature;BME280_humidity;BME280_pressure;Samples;Min_cycle;Max_cycle;Signal;HPM_P1;HPM_P2
2023/01/25 00:01:11;;;;;;;5.63;5.05;;;22.10;77.10;;;;;;6194804;28;89252;-72
2023/01/25 00:04:13;;;;;;;5.28;4.78;;;22.10;77.10;;;;;;6204157;28;88660;-72
2023/01/25 00:07:15;;;;;;;5.57;5.07;;;22.00;77.10;;;;;;6203263;28;88102;-71
2023/01/25 00:10:20;;;;;;;5.40;4.90;;;22.10;77.20;;;;;;6191424;28;88982;-72
2023/01/25 00:13:22;;;;;;;5.35;4.85;;;22.10;77.10;;;;;;6187101;28;90192;-71
2023/01/25 00:16:24;;;;;;;5.50;5.00;;;22.00;77.10;;;;;;6189943;28;89483;-70
2023/01/25 00:19:26;;;;;;;5.70;5.10;;;22.00;77.10;;;;;;6192471;28;89077;-72
2023/01/25 00:22:28;;;;;;;5.82;5.22;;;22.00;77.10;;;;;;6200257;28;89033;-71
2023/01/25 00:25:31;;;;;;;5.85;5.35;;;22.00;77.00;;;;;;6201513;28;89023;-72
2023/01/25 00:28:33;;;;;;;5.35;4.85;;;22.00;77.00;;;;;;6200891;28;89056;-71
2023/01/25 00:31:47;;;;;;;6.00;5.38;;;22.00;76.90;;;;;;6200035;28;89145;-71
2023/01/25 00:34:49;;;;;;;6.05;5.47;;;22.00;76.90;;;;;;6200393;28;88393;-72
2023/01/25 00:37:53;;;;;;;6.07;5.47;;;22.00;76.70;;;;;;6200882;28;87915;-71
2023/01/25 00:40:58;;;;;;;5.43;4.93;;;22.00;76.70;;;;;;6202613;28;89027;-71
2023/01/25 00:44:00;;;;;;;5.95;5.45;;;21.90;76.70;;;;;;6202258;28;90019;-72
2023/01/25 00:47:03;;;;;;;5.60;5.10;;;21.90;76.70;;;;;;6204929;28;89141;-70
2023/01/25 00:50:07;;;;;;;6.00;5.40;;;21.90;76.50;;;;;;6200518;28;89212;-72
2023/01/25 00:53:09;;;;;;;5.88;5.28;;;21.90;76.50;;;;;;6200393;28;89574;-72
2023/01/25 00:56:12;;;;;;;6.20;5.32;;;21.90;76.50;;;;;;6197750;28;88947;-71
2023/01/25 00:59:15;;;;;;;5.63;5.03;;;21.90;76.60;;;;;;6189963;28;89251;-72
2023/01/25 01:02:17;;;;;;;5.63;5.13;;;21.90;76.50;;;;;;6199614;28;89120;-70
2023/01/25 01:05:19;;;;;;;5.47;4.97;;;21.90;76.40;;;;;;6200276;28;88502;-72
2023/01/25 01:08:21;;;;;;;5.78;5.20;;;21.90;76.40;;;;;;6203902;28;89030;-71
2023/01/25 01:11:25;;;;;;;5.80;5.30;;;21.90;76.40;;;;;;6204966;28;89111;-71
2023/01/25 01:14:27;;;;;;;6.20;5.55;;;21.80;76.20;;;;;;6206214;28;90006;-71
2023/01/25 01:17:29;;;;;;;5.97;5.38;;;21.90;76.30;;;;;;6197443;28;89049;-72
2023/01/25 01:20:31;;;;;;;5.85;5.35;;;21.80;76.20;;;;;;6206251;28;87724;-72
2023/01/25 01:23:33;;;;;;;6.45;5.45;;;21.80;76.20;;;;;;6195962;28;89106;-71
2023/01/25 01:26:36;;;;;;;6.10;5.50;;;21.80;76.20;;;;;;6206427;28;89100;-72
2023/01/25 01:29:38;;;;;;;5.38;4.88;;;21.80;76.10;;;;;;6202020;28;88003;-71
2023/01/25 01:32:40;;;;;;;5.72;5.13;;;21.80;76.20;;;;;;6204373;28;89087;-72
2023/01/25 01:35:45;;;;;;;5.93;5.38;;;21.80;76.20;;;;;;6206569;28;88640;-71
2023/01/25 01:38:47;;;;;;;5.63;5.13;;;21.70;77.10;;;;;;6202967;28;89172;-71
2023/01/25 01:41:51;;;;;;;5.90;5.30;;;21.70;76.10;;;;;;6199696;28;89110;-71
2023/01/25 01:44:54;;;;;;;5.93;5.32;;;21.70;76.10;;;;;;6206314;28;89979;-71
2023/01/25 01:47:57;;;;;;;5.85;5.35;;;21.70;76.10;;;;;;6201677;28;89158;-70
2023/01/25 01:51:05;;;;;;;5.85;5.30;;;21.70;76.00;;;;;;6206116;28;88866;-71
2023/01/25 01:54:11;;;;;;;6.55;5.88;;;21.70;76.00;;;;;;6206038;28;89026;-72
2023/01/25 01:57:18;;;;;;;6.55;5.88;;;21.70;76.00;;;;;;6202601;28;89096;-71
2023/01/25 02:00:23;;;;;;;5.70;5.20;;;21.70;76.00;;;;;;6204702;28;89109;-72
2023/01/25 02:03:26;;;;;;;6.20;5.60;;;21.70;76.00;;;;;;6205320;28;89127;-71
2023/01/25 02:06:34;;;;;;;6.82;6.13;;;21.70;76.00;;;;;;6206313;28;88415;-71
2023/01/25 02:09:36;;;;;;;6.35;5.75;;;21.60;76.00;;;;;;6186394;28;89094;-71
2023/01/25 02:12:41;;;;;;;6.78;6.07;;;21.60;75.90;;;;;;6193048;28;89295;-71
2023/01/25 02:15:46;;;;;;;6.97;6.28;;;21.60;76.00;;;;;;6205367;28;90555;-71
2023/01/25 02:18:48;;;;;;;7.25;6.55;;;21.60;76.00;;;;;;6191365;28;89389;-72
2023/01/25 02:21:52;;;;;;;7.00;6.30;;;21.60;75.90;;;;;;6205047;28;89103;-71
2023/01/25 02:25:04;;;;;;;7.15;6.45;;;21.60;75.90;;;;;;6199575;28;89188;-71
2023/01/25 02:28:11;;;;;;;6.97;6.38;;;21.60;75.90;;;;;;6193131;28;89472;-71
2023/01/25 02:31:13;;;;;;;8.05;7.25;;;21.60;75.90;;;;;;6205235;28;89135;-71
2023/01/25 02:34:15;;;;;;;8.23;7.43;;;21.60;75.90;;;;;;6205783;28;89085;-72
2023/01/25 02:37:18;;;;;;;8.32;7.40;;;21.60;75.80;;;;;;6195942;28;88372;-71
2023/01/25 02:40:21;;;;;;;7.68;6.90;;;21.60;75.90;;;;;;6194347;28;88149;-71
2023/01/25 02:43:27;;;;;;;8.60;7.80;;;21.50;75.80;;;;;;6195422;28;89138;-72
2023/01/25 02:46:31;;;;;;;8.73;7.82;;;21.50;75.80;;;;;;6189736;28;90111;-70
2023/01/25 02:49:35;;;;;;;8.48;7.68;;;21.50;75.80;;;;;;6205095;28;88008;-72
2023/01/25 02:52:37;;;;;;;8.63;7.80;;;21.50;75.90;;;;;;6205344;28;89057;-71
2023/01/25 02:55:41;;;;;;;8.93;8.02;;;21.50;75.70;;;;;;6187583;28;89023;-71
2023/01/25 02:58:43;;;;;;;9.77;8.80;;;21.50;75.80;;;;;;6196505;28;89136;-72
2023/01/25 03:01:46;;;;;;;8.70;7.80;;;21.50;75.70;;;;;;6202507;28;88051;-72
2023/01/25 03:04:48;;;;;;;9.65;8.65;;;21.50;75.70;;;;;;6201210;28;89111;-72
2023/01/25 03:07:50;;;;;;;9.38;8.48;;;21.50;75.70;;;;;;6204963;28;88447;-72
2023/01/25 03:10:56;;;;;;;9.20;8.30;;;21.50;75.70;;;;;;6199882;28;89453;-72
2023/01/25 03:13:58;;;;;;;9.50;8.55;;;21.40;75.60;;;;;;6202862;28;89098;-71
2023/01/25 03:17:00;;;;;;;9.88;8.88;;;21.50;75.70;;;;;;6200497;28;90295;-72
2023/01/25 03:20:02;;;;;;;9.45;8.55;;;21.50;75.70;;;;;;6203758;28;89112;-72
2023/01/25 03:23:04;;;;;;;10.20;9.20;;;21.40;75.90;;;;;;6196047;28;89201;-72
2023/01/25 03:26:10;;;;;;;10.13;9.18;;;21.40;75.70;;;;;;6201983;28;89194;-72
2023/01/25 03:29:12;;;;;;;9.77;8.88;;;21.40;75.70;;;;;;6201387;28;89147;-71
2023/01/25 03:32:15;;;;;;;9.88;8.98;;;21.40;75.70;;;;;;6195401;28;89351;-72
2023/01/25 03:35:17;;;;;;;10.38;9.27;;;21.40;75.70;;;;;;6201883;28;89052;-73
2023/01/25 03:38:19;;;;;;;10.57;9.57;;;21.40;75.70;;;;;;6197643;28;88585;-73
2023/01/25 03:41:23;;;;;;;10.60;9.52;;;21.40;75.50;;;;;;6195175;28;89470;-72
2023/01/25 03:44:25;;;;;;;10.30;9.30;;;21.40;75.50;;;;;;6187672;28;89214;-73
2023/01/25 03:47:27;;;;;;;10.65;9.65;;;21.40;75.50;;;;;;6203842;28;89510;-72
2023/01/25 03:50:29;;;;;;;10.75;9.65;;;21.40;75.50;;;;;;6200594;28;88080;-72
2023/01/25 03:53:31;;;;;;;10.88;9.77;;;21.40;75.60;;;;;;6185199;28;88600;-72
2023/01/25 03:56:35;;;;;;;11.20;10.10;;;21.30;75.50;;;;;;6208933;28;87886;-72
2023/01/25 03:59:37;;;;;;;10.70;9.60;;;21.40;75.50;;;;;;6207019;28;89049;-72
2023/01/25 04:02:39;;;;;;;10.18;9.20;;;21.30;75.50;;;;;;6201263;28;87893;-71
2023/01/25 04:05:41;;;;;;;10.48;9.45;;;21.30;75.50;;;;;;6199298;28;88757;-72
2023/01/25 04:08:44;;;;;;;9.88;8.95;;;21.30;75.50;;;;;;6209783;28;88430;-73
2023/01/25 04:11:49;;;;;;;10.85;9.75;;;21.30;75.50;;;;;;6205800;28;89168;-72
2023/01/25 04:14:51;;;;;;;10.90;9.80;;;21.30;75.50;;;;;;6204659;28;87985;-72
2023/01/25 04:17:55;;;;;;;11.25;10.15;;;21.30;75.40;;;;;;6205965;28;90258;-71
2023/01/25 04:20:57;;;;;;;10.55;9.55;;;21.30;75.40;;;;;;6202905;28;89266;-73
2023/01/25 04:23:59;;;;;;;10.38;9.38;;;21.30;75.30;;;;;;6207931;28;89100;-71
2023/01/25 04:27:03;;;;;;;10.60;9.55;;;21.30;75.20;;;;;;6208202;28;89161;-72
2023/01/25 04:30:06;;;;;;;10.80;9.80;;;21.30;75.10;;;;;;6207256;28;89361;-72
2023/01/25 04:33:10;;;;;;;10.25;9.25;;;21.30;75.10;;;;;;6190170;28;89105;-72
2023/01/25 04:36:12;;;;;;;10.75;9.75;;;21.30;75.10;;;;;;6208151;28;89243;-71
2023/01/25 04:39:14;;;;;;;10.43;9.43;;;21.30;75.10;;;;;;6197359;28;88454;-71
2023/01/25 04:42:18;;;;;;;10.35;9.35;;;21.30;75.10;;;;;;6205899;28;89091;-71
2023/01/25 04:45:20;;;;;;;10.10;9.10;;;21.40;75.10;;;;;;6207408;28;89443;-72
2023/01/25 04:48:22;;;;;;;10.13;9.13;;;21.30;74.80;;;;;;6206147;28;90059;-71
2023/01/25 04:51:24;;;;;;;10.15;9.15;;;21.40;74.90;;;;;;6203730;28;89051;-70
2023/01/25 04:54:26;;;;;;;10.88;9.77;;;21.40;74.90;;;;;;6203655;28;89070;-70
2023/01/25 04:57:30;;;;;;;10.15;9.15;;;21.40;74.80;;;;;;6207653;28;89200;-71
2023/01/25 05:00:32;;;;;;;10.77;9.70;;;21.50;74.90;;;;;;6198481;28;89023;-70
2023/01/25 05:03:34;;;;;;;10.50;9.50;;;21.40;74.70;;;;;;6208096;28;89098;-71
2023/01/25 05:06:36;;;;;;;9.63;8.73;;;21.50;74.70;;;;;;6205565;28;88129;-72
2023/01/25 05:09:38;;;;;;;10.10;9.20;;;21.50;74.70;;;;;;6208399;28;89000;-70
2023/01/25 05:12:42;;;;;;;10.00;9.00;;;21.50;74.60;;;;;;6205059;28;89172;-72
2023/01/25 05:15:44;;;;;;;10.02;9.10;;;21.50;74.50;;;;;;6195649;28;89320;-70
2023/01/25 05:18:46;;;;;;;10.40;9.38;;;21.60;74.50;;;;;;6206014;28;90006;-71
2023/01/25 05:22:00;;;;;;;9.80;8.90;;;21.60;74.40;;;;;;6207633;28;89126;-72
2023/01/25 05:25:02;;;;;;;9.38;8.52;;;21.60;74.40;;;;;;6200369;28;89108;-71
2023/01/25 05:28:05;;;;;;;10.48;9.48;;;21.60;74.30;;;;;;6205156;28;89203;-72
2023/01/25 05:31:07;;;;;;;9.77;8.88;;;21.60;74.20;;;;;;6206859;28;88992;-71
2023/01/25 05:34:10;;;;;;;9.55;8.65;;;21.70;74.20;;;;;;6206688;28;89107;-72
2023/01/25 05:37:14;;;;;;;9.23;8.32;;;21.70;74.20;;;;;;6204700;28;89115;-71
2023/01/25 05:40:16;;;;;;;9.50;8.60;;;21.70;74.10;;;;;;6207040;28;88720;-72
2023/01/25 05:43:22;;;;;;;9.65;8.73;;;21.70;74.00;;;;;;6207056;28;88953;-72
2023/01/25 05:46:24;;;;;;;9.60;8.70;;;21.70;74.00;;;;;;6204296;28;89335;-72
2023/01/25 05:49:26;;;;;;;9.60;8.60;;;21.80;74.00;;;;;;6206805;28;90321;-72
2023/01/25 05:52:28;;;;;;;9.63;8.70;;;21.80;73.50;;;;;;6206984;28;89079;-73
2023/01/25 05:55:30;;;;;;;10.07;9.10;;;21.80;72.80;;;;;;6206650;28;89092;-72
2023/01/25 05:58:34;;;;;;;9.75;8.80;;;21.80;72.50;;;;;;6204233;28;87982;-72
2023/01/25 06:01:36;;;;;;;9.27;8.38;;;21.80;72.30;;;;;;6207207;28;89388;-71
2023/01/25 06:04:38;;;;;;;9.75;8.75;;;21.80;72.20;;;;;;6206054;28;89080;-71
2023/01/25 06:07:40;;;;;;;10.07;9.07;;;21.80;72.00;;;;;;6206587;28;89139;-71
2023/01/25 06:10:42;;;;;;;11.38;8.98;;;21.80;72.00;;;;;;6206685;28;88473;-72
2023/01/25 06:13:46;;;;;;;9.50;8.43;;;21.80;72.00;;;;;;6205766;28;89043;-71
2023/01/25 06:16:48;;;;;;;9.25;8.35;;;21.90;72.00;;;;;;6205892;28;89069;-71
2023/01/25 06:19:50;;;;;;;9.05;8.15;;;21.90;72.00;;;;;;6204832;28;90048;-71
2023/01/25 06:22:52;;;;;;;9.43;8.43;;;21.90;72.00;;;;;;6205668;28;89171;-71
2023/01/25 06:25:58;;;;;;;9.27;8.07;;;21.90;72.00;;;;;;6205444;28;89262;-71
2023/01/25 06:29:02;;;;;;;9.45;8.48;;;21.90;71.90;;;;;;6206745;28;89044;-71
2023/01/25 06:32:04;;;;;;;10.35;8.02;;;21.90;71.80;;;;;;6205354;28;89118;-72
2023/01/25 06:35:06;;;;;;;9.00;8.10;;;21.90;71.90;;;;;;6204484;28;89157;-72
2023/01/25 06:38:08;;;;;;;8.23;7.43;;;21.90;71.80;;;;;;6205314;28;89071;-71
2023/01/25 06:41:12;;;;;;;8.85;7.95;;;21.90;71.80;;;;;;6205172;28;88692;-70
2023/01/25 06:44:15;;;;;;;8.65;7.75;;;21.90;71.80;;;;;;6194684;28;88960;-71
2023/01/25 06:47:17;;;;;;;8.90;7.90;;;21.90;71.80;;;;;;6206209;28;89209;-71
2023/01/25 06:50:19;;;;;;;9.00;8.10;;;21.90;72.70;;;;;;6193977;28;90100;-72
2023/01/25 06:53:21;;;;;;;9.05;7.88;;;22.00;71.80;;;;;;6203048;28;89163;-72
2023/01/25 06:56:24;;;;;;;8.45;7.60;;;22.00;71.80;;;;;;6202922;28;89082;-71
2023/01/25 06:59:28;;;;;;;8.60;7.70;;;21.90;71.60;;;;;;6204022;28;89036;-72
2023/01/25 07:02:30;;;;;;;8.82;7.93;;;22.00;71.70;;;;;;6206013;28;89209;-72
2023/01/25 07:05:32;;;;;;;8.40;7.60;;;22.00;71.70;;;;;;6205525;28;89201;-72
2023/01/25 07:08:35;;;;;;;8.38;7.57;;;22.00;71.60;;;;;;6203446;28;89455;-71
2023/01/25 07:11:37;;;;;;;8.40;7.60;;;22.00;71.60;;;;;;6201825;28;88430;-71
2023/01/25 07:14:41;;;;;;;8.43;6.97;;;22.00;71.60;;;;;;6204631;28;88844;-71
2023/01/25 07:17:43;;;;;;;8.50;7.70;;;22.00;71.60;;;;;;6204614;28;88789;-71
2023/01/25 07:20:45;;;;;;;8.15;7.35;;;22.00;71.60;;;;;;6199772;28;90125;-72
2023/01/25 07:23:48;;;;;;;8.30;7.50;;;22.00;71.60;;;;;;6205055;28;89068;-72
2023/01/25 07:26:50;;;;;;;8.20;7.38;;;22.00;71.60;;;;;;6205274;28;90145;-72
2023/01/25 07:29:53;;;;;;;8.23;7.38;;;22.00;71.60;;;;;;6207399;28;88144;-71
2023/01/25 07:32:55;;;;;;;8.55;7.65;;;22.00;71.60;;;;;;6209536;28;89098;-71
2023/01/25 07:36:00;;;;;;;8.68;7.25;;;22.00;71.60;;;;;;6210596;28;89072;-72
2023/01/25 07:39:02;;;;;;;7.80;7.00;;;22.00;71.60;;;;;;6194896;28;89097;-71
2023/01/25 07:42:04;;;;;;;8.90;7.20;;;22.10;71.60;;;;;;6208216;28;88751;-71
2023/01/25 07:45:09;;;;;;;7.38;6.68;;;22.10;71.70;;;;;;6208566;28;89032;-72
2023/01/25 07:48:11;;;;;;;7.93;7.13;;;22.10;71.60;;;;;;6201980;28;89103;-71
2023/01/25 07:51:22;;;;;;;8.02;7.22;;;22.10;71.60;;;;;;6201535;28;90027;-72
2023/01/25 07:54:24;;;;;;;7.63;6.93;;;22.10;71.60;;;;;;6198444;28;88988;-70
2023/01/25 07:57:27;;;;;;;7.88;7.05;;;22.10;71.70;;;;;;6206697;28;89028;-72
2023/01/25 08:00:30;;;;;;;8.07;7.07;;;22.10;71.70;;;;;;6209265;28;89436;-72
2023/01/25 08:03:32;;;;;;;7.40;6.70;;;22.10;71.70;;;;;;6209369;28;87900;-72
2023/01/25 08:06:37;;;;;;;7.47;6.78;;;22.10;71.80;;;;;;6208649;28;89067;-72
2023/01/25 08:09:40;;;;;;;7.32;6.40;;;22.10;71.60;;;;;;6208267;28;89083;-71
2023/01/25 08:12:46;;;;;;;7.10;6.40;;;22.10;71.60;;;;;;6209262;28;88339;-72
2023/01/25 08:15:55;;;;;;;7.03;6.32;;;22.10;71.60;;;;;;6207385;28;88955;-71
2023/01/25 08:18:58;;;;;;;7.18;6.47;;;22.10;71.60;;;;;;6207306;28;89105;-72
2023/01/25 08:22:00;;;;;;;7.45;6.75;;;22.10;71.60;;;;;;6206897;28;90118;-72
2023/01/25 08:25:03;;;;;;;7.65;6.95;;;22.10;71.60;;;;;;6207734;28;89076;-73
2023/01/25 08:28:06;;;;;;;7.30;6.60;;;22.10;71.60;;;;;;6209255;28;89206;-73
2023/01/25 08:31:12;;;;;;;7.03;6.35;;;22.10;71.60;;;;;;6197247;28;89072;-72
2023/01/25 08:34:15;;;;;;;6.82;6.18;;;22.10;71.60;;;;;;6208531;28;89417;-72
2023/01/25 08:37:17;;;;;;;6.90;6.30;;;22.10;71.60;;;;;;6206014;28;89038;-72
2023/01/25 08:40:19;;;;;;;7.10;6.40;;;22.20;71.60;;;;;;6206917;28;89143;-73
2023/01/25 08:43:21;;;;;;;6.85;6.15;;;22.10;71.60;;;;;;6206117;28;88630;-72
2023/01/25 08:46:26;;;;;;;7.13;6.43;;;22.10;71.60;;;;;;6208592;28;89116;-72
2023/01/25 08:49:29;;;;;;;6.50;5.90;;;22.10;71.60;;;;;;6207139;28;87891;-73
2023/01/25 08:52:31;;;;;;;7.32;6.63;;;22.10;71.50;;;;;;6205195;28;90460;-72
2023/01/25 08:55:36;;;;;;;7.25;6.55;;;22.10;71.50;;;;;;6206310;28;89139;-73
2023/01/25 08:58:39;;;;;;;6.70;6.00;;;22.10;71.50;;;;;;6200969;28;88226;-73
2023/01/25 09:01:43;;;;;;;6.47;5.88;;;22.20;72.50;;;;;;6206297;28;88559;-73
2023/01/25 09:04:45;;;;;;;7.18;5.95;;;22.20;71.50;;;;;;6202822;28;88026;-73
2023/01/25 09:07:48;;;;;;;7.15;5.97;;;22.20;71.50;;;;;;6201465;28;88950;-72
2023/01/25 09:10:50;;;;;;;6.53;5.93;;;22.20;71.50;;;;;;6207460;28;87982;-73
2023/01/25 09:13:52;;;;;;;6.70;6.03;;;22.20;71.50;;;;;;6207248;28;88426;-72
2023/01/25 09:16:55;;;;;;;6.40;5.80;;;22.20;71.70;;;;;;6197982;28;87974;-72
2023/01/25 09:19:57;;;;;;;6.07;5.50;;;22.20;71.50;;;;;;6207453;28;87983;-74
2023/01/25 09:22:59;;;;;;;6.75;6.05;;;22.20;71.60;;;;;;6203766;28;90036;-73
2023/01/25 09:26:02;;;;;;;6.25;5.65;;;22.10;71.50;;;;;;6207503;28;89449;-73
2023/01/25 09:29:06;;;;;;;6.63;5.95;;;22.20;71.50;;;;;;6203154;28;87972;-72
2023/01/25 09:32:09;;;;;;;6.32;5.72;;;22.20;71.50;;;;;;6199132;28;89732;-72
2023/01/25 09:35:11;;;;;;;6.45;5.85;;;22.20;71.50;;;;;;6205655;28;89117;-72
2023/01/25 09:38:13;;;;;;;6.68;6.07;;;22.20;71.50;;;;;;6192738;28;89347;-72
2023/01/25 09:41:34;;;;;;;6.47;5.82;;;22.20;71.50;;;;;;6206539;28;89907;-73
2023/01/25 09:44:52;;;;;;;6.38;5.78;;;22.20;71.50;;;;;;6207182;28;88327;-72
2023/01/25 09:48:00;;;;;;;6.65;6.05;;;22.20;71.60;;;;;;6206102;28;89342;-72
2023/01/25 09:51:22;;;;;;;5.70;5.20;;;22.20;71.50;;;;;;6206232;28;88364;-73
2023/01/25 09:54:27;;;;;;;6.18;5.57;;;22.20;71.50;;;;;;6205844;28;90294;-72
2023/01/25 09:57:35;;;;;;;6.10;5.50;;;22.20;71.50;;;;;;6205255;28;89208;-73
2023/01/25 10:00:42;;;;;;;6.22;5.63;;;22.20;71.60;;;;;;6207595;28;87956;-72
2023/01/25 10:03:52;;;;;;;6.03;5.43;;;22.20;71.60;;;;;;6195382;28;89168;-71
2023/01/25 10:06:59;;;;;;;6.05;5.45;;;22.20;71.50;;;;;;6204571;28;88814;-73
2023/01/25 10:10:06;;;;;;;6.20;5.60;;;22.20;71.60;;;;;;6205808;28;88043;-73
2023/01/25 10:13:11;;;;;;;6.07;5.47;;;22.20;71.50;;;;;;6206321;28;88421;-73
2023/01/25 10:16:21;;;;;;;5.90;5.30;;;22.20;71.50;;;;;;6205706;28;88342;-73
2023/01/25 10:19:37;;;;;;;6.28;5.68;;;22.20;71.50;;;;;;6205839;28;89252;-73
2023/01/25 10:22:46;;;;;;;6.00;5.15;;;22.20;71.60;;;;;;6205096;28;89029;-73
2023/01/25 10:25:56;;;;;;;5.93;5.32;;;22.20;71.50;;;;;;6206445;28;88928;-73
2023/01/25 10:29:05;;;;;;;5.90;5.40;;;22.20;71.50;;;;;;6195023;28;89084;-73
2023/01/25 10:32:18;;;;;;;5.82;5.22;;;22.20;71.50;;;;;;6205613;28;90058;-72
2023/01/25 10:35:24;;;;;;;5.97;5.47;;;22.20;71.60;;;;;;6204834;28;90130;-73
2023/01/25 10:38:32;;;;;;;5.72;5.22;;;22.20;71.60;;;;;;6202738;28;89056;-73
2023/01/25 10:41:39;;;;;;;5.78;5.28;;;22.20;71.60;;;;;;6205886;28;87967;-73
2023/01/25 10:44:41;;;;;;;5.68;5.18;;;22.30;71.60;;;;;;6206137;28;89592;-73
2023/01/25 10:47:48;;;;;;;5.85;5.25;;;22.20;72.40;;;;;;6202218;28;88361;-73
2023/01/25 10:50:53;;;;;;;5.72;5.22;;;22.30;71.60;;;;;;6205025;28;89328;-73
2023/01/25 10:54:01;;;;;;;5.40;4.90;;;22.30;71.50;;;;;;6204464;28;89050;-72
2023/01/25 10:57:06;;;;;;;5.72;5.13;;;22.20;71.50;;;;;;6201996;28;90043;-72
2023/01/25 11:00:25;;;;;;;5.25;4.82;;;22.20;71.40;;;;;;6201922;28;89162;-72
2023/01/25 11:03:36;;;;;;;5.32;4.82;;;22.30;71.50;;;;;;6203448;28;89005;-73
2023/01/25 11:06:49;;;;;;;5.63;5.13;;;22.30;71.50;;;;;;6204731;28;88012;-73
2023/01/25 11:09:51;;;;;;;5.28;4.78;;;22.20;71.50;;;;;;6201436;28;89117;-72
2023/01/25 11:13:22;;;;;;;5.70;5.20;;;22.30;71.60;;;;;;6198415;28;89559;-73
2023/01/25 11:16:36;;;;;;;5.43;4.93;;;22.30;71.60;;;;;;6203911;28;89059;-72
2023/01/25 11:19:39;;;;;;;5.47;4.97;;;22.30;71.50;;;;;;6204702;28;88282;-73
2023/01/25 11:22:52;;;;;;;5.63;5.13;;;22.30;71.50;;;;;;6205157;28;89369;-72
2023/01/25 11:25:54;;;;;;;5.13;4.63;;;22.30;71.50;;;;;;6205366;28;89083;-73
2023/01/25 11:29:11;;;;;;;5.05;4.65;;;22.30;71.70;;;;;;6200307;28;90236;-71
2023/01/25 11:32:22;;;;;;;5.43;4.93;;;22.30;71.60;;;;;;6201973;28;89495;-72
2023/01/25 11:35:31;;;;;;;5.35;4.85;;;22.30;71.50;;;;;;6201090;28;88972;-72
2023/01/25 11:38:35;;;;;;;5.03;4.55;;;22.30;71.50;;;;;;6204870;28;89006;-72
2023/01/25 11:41:46;;;;;;;5.15;4.70;;;22.30;71.50;;;;;;6204841;28;89282;-70
2023/01/25 11:45:29;;;;;;;5.45;4.95;;;22.40;71.60;;;;;;6203974;28;89384;-72
2023/01/25 11:48:50;;;;;;;5.53;5.03;;;22.30;71.50;;;;;;6197689;28;89360;-73
2023/01/25 11:52:02;;;;;;;5.20;4.70;;;22.30;71.50;;;;;;6204456;28;87252;-72
2023/01/25 11:55:16;;;;;;;5.20;4.70;;;22.30;71.50;;;;;;6194555;28;89231;-72
2023/01/25 11:58:39;;;;;;;5.13;4.63;;;22.30;71.50;;;;;;6201120;28;89314;-72
2023/01/25 12:01:57;;;;;;;5.18;4.68;;;22.30;71.50;;;;;;6201468;28;90404;-72
2023/01/25 12:05:17;;;;;;;4.95;4.55;;;22.30;71.50;;;;;;6203977;28;89312;-73
2023/01/25 12:08:51;;;;;;;5.20;4.70;;;22.30;71.50;;;;;;6191750;28;89060;-73
2023/01/25 12:12:07;;;;;;;5.07;4.68;;;22.30;71.50;;;;;;6165412;28;89683;-73
2023/01/25 12:15:41;;;;;;;5.20;4.70;;;22.40;71.60;;;;;;6193520;28;89312;-73
2023/01/25 12:19:00;;;;;;;5.50;5.00;;;22.30;71.50;;;;;;6203539;28;88951;-73
2023/01/25 12:22:31;;;;;;;5.40;4.90;;;22.30;71.50;;;;;;6202043;28;89342;-73
2023/01/25 12:25:48;;;;;;;5.00;4.60;;;22.30;71.50;;;;;;6205888;28;88610;-73
2023/01/25 12:28:57;;;;;;;5.32;4.82;;;22.30;71.50;;;;;;6207987;28;89164;-72
2023/01/25 12:32:03;;;;;;;4.97;4.47;;;22.40;72.40;;;;;;6203906;28;89427;-72
2023/01/25 12:35:28;;;;;;;4.70;4.30;;;22.40;71.50;;;;;;6208016;28;89945;-73
2023/01/25 12:38:37;;;;;;;5.20;4.70;;;22.40;71.50;;;;;;6206522;28;89021;-72
2023/01/25 12:41:44;;;;;;;4.88;4.47;;;22.40;71.50;;;;;;6207474;28;89059;-73
2023/01/25 12:44:58;;;;;;;4.78;4.35;;;22.40;71.50;;;;;;6208162;28;89143;-73
2023/01/25 12:48:05;;;;;;;5.32;4.82;;;22.40;71.50;;;;;;6207308;28;89373;-73
2023/01/25 12:51:09;;;;;;;5.20;4.70;;;22.40;71.60;;;;;;6206914;28;88614;-73
2023/01/25 12:54:20;;;;;;;5.22;4.72;;;22.40;71.50;;;;;;6205502;28;89341;-72
2023/01/25 12:57:28;;;;;;;5.00;4.50;;;22.40;71.60;;;;;;6205192;28;88724;-73
2023/01/25 13:00:42;;;;;;;5.13;4.63;;;22.30;71.50;;;;;;6201519;28;88929;-72
2023/01/25 13:04:00;;;;;;;4.68;4.28;;;22.30;71.50;;;;;;6205828;28;88281;-72
2023/01/25 13:07:10;;;;;;;5.18;4.68;;;22.40;71.50;;;;;;6207025;28;90111;-72
2023/01/25 13:10:21;;;;;;;4.85;4.35;;;22.40;71.60;;;;;;6194142;28;89056;-72
2023/01/25 13:13:25;;;;;;;5.07;4.57;;;22.40;71.50;;;;;;6207344;28;89416;-72
2023/01/25 13:16:42;;;;;;;5.20;4.70;;;22.40;71.50;;;;;;6207086;28;89118;-72
2023/01/25 13:19:44;;;;;;;4.70;4.30;;;22.40;71.50;;;;;;6207116;28;89174;-74
2023/01/25 13:22:59;;;;;;;5.28;4.78;;;22.40;72.00;;;;;;6205649;28;89237;-73
2023/01/25 13:26:34;;;;;;;5.15;4.63;;;22.40;72.40;;;;;;6199300;28;89277;-73
2023/01/25 13:29:48;;;;;;;5.30;4.80;;;22.40;71.50;;;;;;6180369;28;88364;-72
2023/01/25 13:32:58;;;;;;;5.18;4.68;;;22.40;71.50;;;;;;6205669;28;89103;-73
2023/01/25 13:36:37;;;;;;;5.13;4.63;;;22.40;71.50;;;;;;6207787;28;89403;-72
2023/01/25 13:39:43;;;;;;;4.80;4.30;;;22.40;71.50;;;;;;6198429;28;90142;-73
2023/01/25 13:43:00;;;;;;;4.85;4.35;;;22.40;71.50;;;;;;6206849;28;88100;-72
2023/01/25 13:46:06;;;;;;;4.68;4.28;;;22.40;71.50;;;;;;6204327;28;87940;-72
2023/01/25 13:49:21;;;;;;;5.15;4.65;;;22.40;71.50;;;;;;6197252;28;88011;-73
2023/01/25 13:52:25;;;;;;;5.20;4.70;;;22.40;71.50;;;;;;6206596;28;89078;-73
2023/01/25 13:55:27;;;;;;;4.88;4.43;;;22.40;71.50;;;;;;6206851;28;89246;-72
2023/01/25 13:58:32;;;;;;;5.20;4.70;;;22.40;71.50;;;;;;6193878;28;88310;-73
2023/01/25 14:01:36;;;;;;;4.85;4.45;;;22.40;72.40;;;;;;6206987;28;88398;-73
2023/01/25 14:04:39;;;;;;;4.90;4.50;;;22.40;71.50;;;;;;6206827;28;89238;-73
2023/01/25 14:07:46;;;;;;;4.75;4.35;;;22.40;71.50;;;;;;6205263;28;89384;-72
2023/01/25 14:10:49;;;;;;;4.50;4.10;;;22.50;71.60;;;;;;6205247;28;90011;-72
2023/01/25 14:14:01;;;;;;;4.88;4.47;;;22.40;71.60;;;;;;6206490;28;89317;-72
2023/01/25 14:17:18;;;;;;;4.93;4.43;;;22.50;71.60;;;;;;6190889;28;89205;-72
2023/01/25 14:20:22;;;;;;;5.30;4.80;;;22.50;71.60;;;;;;6194799;28;88340;-73
2023/01/25 14:23:26;;;;;;;5.00;4.60;;;22.50;71.60;;;;;;6200405;28;88008;-72
2023/01/25 14:26:28;;;;;;;4.55;4.15;;;22.40;71.50;;;;;;6206674;28;89067;-73
2023/01/25 14:29:34;;;;;;;5.07;4.57;;;22.50;71.50;;;;;;6205923;28;89342;-72
2023/01/25 14:32:36;;;;;;;5.05;4.55;;;22.50;71.60;;;;;;6207168;28;88768;-72
2023/01/25 14:35:41;;;;;;;4.60;4.20;;;22.50;71.60;;;;;;6205638;28;88288;-73
2023/01/25 14:38:43;;;;;;;5.30;4.50;;;22.40;71.50;;;;;;6204480;28;89108;-71
2023/01/25 14:41:50;;;;;;;4.55;4.15;;;22.50;71.50;;;;;;6204692;28;90023;-73
2023/01/25 14:44:52;;;;;;;4.68;4.28;;;22.50;71.60;;;;;;6204731;28;89251;-73
2023/01/25 14:47:54;;;;;;;5.13;4.63;;;22.40;71.50;;;;;;6205465;28;89001;-73
2023/01/25 14:51:05;;;;;;;4.75;4.35;;;22.40;71.50;;;;;;6205428;28;89092;-73
2023/01/25 14:54:17;;;;;;;4.82;4.32;;;22.50;71.60;;;;;;6193885;28;89629;-73
2023/01/25 14:57:33;;;;;;;4.38;3.97;;;22.50;71.60;;;;;;6204766;28;88961;-73
2023/01/25 15:00:37;;;;;;;5.07;4.57;;;22.50;71.50;;;;;;6205904;28;88345;-73
2023/01/25 15:03:44;;;;;;;4.85;4.40;;;22.50;71.60;;;;;;6194356;28;88430;-73
2023/01/25 15:06:49;;;;;;;5.07;4.57;;;22.50;71.60;;;;;;6203007;28;89098;-73
2023/01/25 15:10:02;;;;;;;4.90;4.40;;;22.50;71.50;;;;;;6204765;28;89387;-73
2023/01/25 15:13:20;;;;;;;4.95;4.47;;;22.50;71.60;;;;;;6202756;28;90002;-72
2023/01/25 15:16:33;;;;;;;5.00;4.50;;;22.50;71.50;;;;;;6205458;28;88974;-74
2023/01/25 15:19:35;;;;;;;5.00;4.50;;;22.50;71.50;;;;;;6204133;28;89230;-73
2023/01/25 15:22:39;;;;;;;4.95;4.50;;;22.50;71.50;;;;;;6204728;28;89090;-73
2023/01/25 15:26:02;;;;;;;5.00;4.53;;;22.50;71.50;;;;;;6201640;28;89455;-74
2023/01/25 15:29:12;;;;;;;5.00;4.50;;;22.50;71.50;;;;;;6191245;28;89374;-72
2023/01/25 15:32:19;;;;;;;5.15;4.65;;;22.50;71.50;;;;;;6204101;28;89099;-73
2023/01/25 15:35:22;;;;;;;5.15;4.65;;;22.50;71.50;;;;;;6203560;28;88417;-73
2023/01/25 15:38:26;;;;;;;4.97;4.47;;;22.50;71.50;;;;;;6203932;28;88986;-74
2023/01/25 15:41:28;;;;;;;4.93;4.43;;;22.50;71.60;;;;;;6204940;28;88430;-74
2023/01/25 15:44:30;;;;;;;5.22;4.72;;;22.50;71.60;;;;;;6204048;28;88983;-73
2023/01/25 15:47:33;;;;;;;4.95;4.45;;;22.50;71.60;;;;;;6203312;28;89082;-73
2023/01/25 15:50:35;;;;;;;5.13;4.63;;;22.50;71.60;;;;;;6207259;28;89012;-73
2023/01/25 15:53:39;;;;;;;5.18;4.68;;;22.50;71.60;;;;;;6208278;28;89981;-73
2023/01/25 15:56:44;;;;;;;5.03;4.57;;;22.50;71.50;;;;;;6200035;28;89093;-73
2023/01/25 15:59:47;;;;;;;4.53;4.13;;;22.50;71.50;;;;;;6207008;28;88246;-73
2023/01/25 16:02:51;;;;;;;4.90;4.50;;;22.50;71.50;;;;;;6207689;28;89038;-73
2023/01/25 16:05:57;;;;;;;5.07;4.50;;;22.50;71.50;;;;;;6208442;28;87229;-73